createdAt,value
2019-04-09T00:02:56.481Z,9.20
2019-04-09T00:05:23.923Z,9.10
2019-04-09T00:07:58.723Z,9.10
2019-04-09T00:10:20.543Z,9.10
2019-04-09T00:12:48.854Z,8.90
2019-04-09T00:15:16.355Z,8.90
2019-04-09T00:17:44.457Z,8.80
2019-04-09T00:20:12.591Z,8.80
2019-04-09T00:22:39.999Z,8.70
2019-04-09T00:25:08.123Z,8.60
2019-04-09T00:27:36.787Z,8.60
2019-04-09T00:30:04.848Z,8.50
2019-04-09T00:32:32.567Z,8.50
2019-04-09T00:35:00.723Z,8.30
2019-04-09T00:37:28.235Z,8.40
2019-04-09T00:39:55.635Z,8.30
2019-04-09T00:42:23.087Z,8.30
2019-04-09T00:44:50.475Z,8.40
2019-04-09T00:47:18.002Z,8.40
2019-04-09T00:49:45.868Z,8.40
2019-04-09T00:52:13.789Z,8.40
2019-04-09T00:54:41.573Z,8.40
2019-04-09T00:57:10.647Z,8.40
2019-04-09T00:59:38.215Z,8.40
2019-04-09T01:02:06.705Z,8.50
2019-04-09T01:04:34.276Z,8.50
2019-04-09T01:07:01.688Z,8.50
2019-04-09T01:09:29.401Z,8.60
2019-04-09T01:11:56.911Z,8.60
2019-04-09T01:14:24.304Z,8.50
2019-04-09T01:16:51.715Z,8.60
2019-04-09T01:19:21.434Z,8.60
2019-04-09T01:21:48.388Z,8.70
2019-04-09T01:24:27.760Z,8.70
2019-04-09T01:26:51.286Z,8.60
2019-04-09T01:29:54.713Z,8.60
2019-04-09T01:32:58.039Z,8.70
2019-04-09T01:35:57.760Z,8.70
2019-04-09T01:38:36.364Z,8.70
2019-04-09T01:41:26.932Z,8.70
2019-04-09T01:43:59.463Z,8.80
2019-04-09T01:46:47.157Z,8.80
2019-04-09T01:49:30.633Z,8.80
2019-04-09T01:52:20.272Z,8.80
2019-04-09T01:55:05.963Z,8.70
2019-04-09T01:57:52.876Z,8.80
2019-04-09T02:00:38.588Z,8.70
2019-04-09T02:03:28.058Z,8.70
2019-04-09T02:06:30.311Z,8.80
2019-04-09T02:09:13.951Z,8.80
2019-04-09T02:12:10.278Z,8.90
2019-04-09T02:14:56.404Z,8.90
2019-04-09T02:17:42.520Z,8.90
2019-04-09T02:20:39.476Z,8.80
2019-04-09T02:23:38.611Z,8.80
2019-04-09T02:26:15.131Z,8.70
2019-04-09T02:29:02.436Z,8.70
2019-04-09T02:31:59.529Z,8.80
2019-04-09T02:34:41.576Z,8.80
2019-04-09T02:37:27.617Z,8.80
2019-04-09T02:40:03.672Z,8.90
2019-04-09T02:42:49.175Z,8.90
2019-04-09T02:45:39.415Z,8.90
2019-04-09T02:48:19.213Z,8.80
2019-04-09T02:51:09.429Z,8.80
2019-04-09T02:54:04.898Z,8.90
2019-04-09T02:57:01.283Z,8.90
2019-04-09T02:59:44.934Z,8.90
2019-04-09T03:02:37.287Z,8.80
2019-04-09T03:05:24.540Z,8.80
2019-04-09T03:08:10.689Z,8.80
2019-04-09T03:11:10.306Z,8.80
2019-04-09T03:14:02.618Z,8.80
2019-04-09T03:16:37.971Z,8.80
2019-04-09T03:19:23.745Z,8.80
2019-04-09T03:22:04.709Z,8.70
2019-04-09T03:24:55.053Z,8.80
2019-04-09T03:28:00.100Z,8.90
2019-04-09T03:30:34.945Z,8.90
2019-04-09T03:33:22.508Z,8.90
2019-04-09T03:36:10.435Z,9.00
2019-04-09T03:39:03.376Z,9.00
2019-04-09T03:41:43.436Z,8.90
2019-04-09T03:44:39.758Z,8.90
2019-04-09T03:47:42.182Z,8.90
2019-04-09T03:50:46.162Z,8.80
2019-04-09T03:53:43.416Z,8.90
2019-04-09T03:56:32.875Z,8.90
2019-04-09T03:59:20.683Z,8.90
2019-04-09T04:02:13.820Z,8.90
2019-04-09T04:04:57.469Z,8.90
2019-04-09T04:07:39.846Z,8.90
2019-04-09T04:10:34.588Z,8.80
2019-04-09T04:13:30.979Z,8.90
2019-04-09T04:16:20.717Z,8.90
2019-04-09T04:19:03.031Z,8.70
2019-04-09T04:21:39.746Z,8.60
2019-04-09T04:24:25.351Z,8.60
2019-04-09T04:27:18.525Z,8.50
2019-04-09T04:30:12.837Z,8.30
2019-04-09T04:32:51.950Z,8.30
2019-04-09T04:35:34.947Z,8.20
2019-04-09T04:38:17.197Z,8.10
2019-04-09T04:40:55.827Z,8.10
2019-04-09T04:43:35.161Z,8.00
2019-04-09T04:46:23.051Z,8.10
2019-04-09T04:49:05.234Z,8.10
2019-04-09T04:51:50.801Z,8.10
2019-04-09T04:54:25.881Z,8.00
2019-04-09T04:57:04.091Z,8.10
2019-04-09T04:59:57.028Z,8.10
2019-04-09T05:02:37.454Z,8.10
2019-04-09T05:05:35.160Z,8.10
2019-04-09T05:08:28.001Z,8.20
2019-04-09T05:11:14.972Z,8.10
2019-04-09T05:13:52.758Z,8.10
2019-04-09T05:16:58.294Z,8.10
2019-04-09T05:20:03.455Z,8.10
2019-04-09T05:22:50.429Z,8.20
2019-04-09T05:25:41.531Z,8.20
2019-04-09T05:28:21.224Z,8.30
2019-04-09T05:31:06.459Z,8.30
2019-04-09T05:34:06.007Z,8.20
2019-04-09T05:36:45.261Z,8.20
2019-04-09T05:39:38.301Z,8.20
2019-04-09T05:42:15.162Z,8.20
2019-04-09T05:44:50.094Z,8.30
2019-04-09T05:47:26.775Z,8.30
2019-04-09T05:50:14.084Z,8.30
2019-04-09T05:52:52.192Z,8.40
2019-04-09T05:55:28.817Z,8.40
2019-04-09T05:58:11.788Z,8.40
2019-04-09T06:01:06.499Z,8.40
2019-04-09T06:03:47.317Z,8.50
2019-04-09T06:06:49.556Z,8.60
2019-04-09T06:09:29.219Z,8.70
2019-04-09T06:11:56.795Z,8.80
2019-04-09T06:14:25.091Z,8.90
2019-04-09T06:16:52.872Z,9.00
2019-04-09T06:19:21.048Z,9.20
2019-04-09T06:21:48.515Z,9.30
2019-04-09T06:24:15.911Z,9.40
2019-04-09T06:26:43.473Z,9.50
2019-04-09T06:29:16.815Z,9.50
2019-04-09T06:31:40.804Z,9.60
2019-04-09T06:34:26.972Z,9.70
2019-04-09T06:37:20.642Z,9.70
2019-04-09T06:39:57.611Z,9.80
2019-04-09T06:42:36.679Z,9.90
2019-04-09T06:45:15.845Z,10.00
2019-04-09T06:48:09.428Z,10.10
2019-04-09T06:50:59.147Z,10.20
2019-04-09T06:53:49.912Z,10.30
2019-04-09T06:56:33.785Z,10.40
2019-04-09T06:59:29.599Z,10.50
2019-04-09T07:02:00.360Z,10.60
2019-04-09T07:04:58.522Z,10.60
2019-04-09T07:07:44.805Z,10.80
2019-04-09T07:10:22.379Z,10.90
2019-04-09T07:13:01.353Z,11.00
2019-04-09T07:15:48.002Z,11.00
2019-04-09T07:18:35.618Z,11.10
2019-04-09T07:21:20.548Z,11.10
2019-04-09T07:24:06.963Z,11.20
2019-04-09T07:26:48.830Z,11.30
2019-04-09T07:29:23.860Z,11.50
2019-04-09T07:32:17.007Z,11.50
2019-04-09T07:35:02.307Z,11.60
2019-04-09T07:38:07.722Z,11.70
2019-04-09T07:41:13.431Z,11.80
2019-04-09T07:44:03.542Z,11.90
2019-04-09T07:46:42.441Z,12.00
2019-04-09T07:49:32.754Z,12.10
2019-04-09T07:52:22.743Z,12.20
2019-04-09T07:55:08.858Z,12.30
2019-04-09T07:57:49.561Z,12.40
2019-04-09T08:00:45.800Z,12.50
2019-04-09T08:03:45.926Z,12.60
2019-04-09T08:06:29.098Z,12.70
2019-04-09T08:09:22.628Z,12.70
2019-04-09T08:11:56.339Z,12.90
2019-04-09T08:14:58.695Z,13.00
2019-04-09T08:17:40.732Z,13.10
2019-04-09T08:20:25.970Z,13.30
2019-04-09T08:23:06.980Z,13.30
2019-04-09T08:26:06.675Z,13.40
2019-04-09T08:29:00.837Z,13.50
2019-04-09T08:31:36.207Z,13.60
2019-04-09T08:34:09.656Z,13.60
2019-04-09T08:37:03.006Z,13.80
2019-04-09T08:39:50.855Z,13.90
2019-04-09T08:42:29.556Z,13.90
2019-04-09T08:45:05.815Z,14.00
2019-04-09T08:47:53.124Z,14.00
2019-04-09T08:50:38.847Z,14.10
2019-04-09T08:53:29.792Z,14.20
2019-04-09T08:56:06.894Z,14.40
2019-04-09T08:58:58.135Z,14.40
2019-04-09T09:02:03.653Z,14.60
2019-04-09T09:04:33.860Z,14.70
2019-04-09T09:07:32.542Z,14.90
2019-04-09T09:10:07.532Z,14.90
2019-04-09T09:12:49.684Z,15.00
2019-04-09T09:15:27.035Z,15.00
2019-04-09T09:18:09.655Z,15.10
2019-04-09T09:20:53.016Z,15.10
2019-04-09T09:23:48.966Z,15.20
2019-04-09T09:26:42.086Z,15.30
2019-04-09T09:29:29.310Z,15.40
2019-04-09T09:32:09.950Z,15.50
2019-04-09T09:34:57.014Z,15.60
2019-04-09T09:37:32.545Z,15.70
2019-04-09T09:40:07.213Z,15.70
2019-04-09T09:43:06.460Z,15.70
2019-04-09T09:46:08.565Z,15.80
2019-04-09T09:48:48.672Z,16.00
2019-04-09T09:51:34.468Z,15.90
2019-04-09T09:54:22.972Z,16.00
2019-04-09T09:57:08.150Z,16.10
2019-04-09T09:59:49.328Z,16.20
2019-04-09T10:02:37.561Z,16.10
2019-04-09T10:05:10.882Z,16.30
2019-04-09T10:08:03.223Z,16.40
2019-04-09T10:10:47.780Z,16.40
2019-04-09T10:13:29.543Z,16.60
2019-04-09T10:16:04.804Z,16.70
2019-04-09T10:18:59.024Z,16.80
2019-04-09T10:21:26.820Z,16.80
2019-04-09T10:24:27.392Z,16.90
2019-04-09T10:26:59.094Z,16.90
2019-04-09T10:29:54.403Z,16.90
2019-04-09T10:32:42.748Z,16.90
2019-04-09T10:35:32.406Z,17.00
2019-04-09T10:38:17.156Z,17.20
2019-04-09T10:41:01.707Z,17.30
2019-04-09T10:43:49.515Z,17.50
2019-04-09T10:46:30.887Z,17.70
2019-04-09T10:49:23.830Z,17.80
2019-04-09T10:52:07.863Z,17.90
2019-04-09T10:55:01.602Z,17.70
2019-04-09T10:57:48.824Z,17.60
2019-04-09T11:00:32.530Z,17.80
2019-04-09T11:03:35.756Z,17.90
2019-04-09T11:06:14.292Z,17.90
2019-04-09T11:09:16.715Z,18.00
2019-04-09T11:12:02.732Z,18.10
2019-04-09T11:15:00.602Z,18.10
2019-04-09T11:17:59.854Z,18.20
2019-04-09T11:20:52.836Z,18.20
2019-04-09T11:23:35.447Z,18.10
2019-04-09T11:26:21.223Z,18.20
2019-04-09T11:29:08.035Z,18.30
2019-04-09T11:32:07.931Z,18.30
2019-04-09T11:34:42.404Z,18.40
2019-04-09T11:37:21.488Z,18.30
2019-04-09T11:40:03.024Z,18.30
2019-04-09T11:43:01.755Z,18.20
2019-04-09T11:45:50.120Z,18.50
2019-04-09T11:48:40.646Z,18.80
2019-04-09T11:51:30.459Z,18.80
2019-04-09T11:54:28.292Z,18.90
2019-04-09T11:57:11.063Z,18.60
2019-04-09T12:00:15.498Z,18.80
2019-04-09T12:02:52.635Z,18.80
2019-04-09T12:05:46.059Z,18.80
2019-04-09T12:08:24.488Z,18.80
2019-04-09T12:11:12.441Z,18.70
2019-04-09T12:13:50.749Z,18.80
2019-04-09T12:16:46.486Z,18.90
2019-04-09T12:19:30.594Z,18.90
2019-04-09T12:22:27.913Z,19.10
2019-04-09T12:25:17.933Z,19.20
2019-04-09T12:27:58.419Z,19.50
2019-04-09T12:30:41.819Z,19.50
2019-04-09T12:33:31.653Z,19.50
2019-04-09T12:36:13.052Z,19.60
2019-04-09T12:38:58.467Z,19.60
2019-04-09T12:41:44.986Z,19.50
2019-04-09T12:44:29.283Z,19.40
2019-04-09T12:47:16.414Z,19.40
2019-04-09T12:50:18.456Z,19.40
2019-04-09T12:53:03.949Z,19.50
2019-04-09T12:55:56.785Z,19.40
2019-04-09T12:58:40.854Z,19.20
2019-04-09T13:01:20.682Z,19.50
2019-04-09T13:04:19.973Z,19.70
2019-04-09T13:06:54.700Z,19.60
2019-04-09T13:09:40.675Z,19.50
2019-04-09T13:12:31.265Z,19.60
2019-04-09T13:15:21.958Z,19.60
2019-04-09T13:18:11.643Z,19.60
2019-04-09T13:20:58.537Z,19.90
2019-04-09T13:23:32.398Z,20.10
2019-04-09T13:26:16.334Z,20.10
2019-04-09T13:29:10.355Z,20.20
2019-04-09T13:32:02.496Z,20.00
2019-04-09T13:34:50.040Z,19.90
2019-04-09T13:37:48.835Z,19.90
2019-04-09T13:40:51.583Z,20.00
2019-04-09T13:43:41.747Z,20.00
2019-04-09T13:46:28.652Z,19.90
2019-04-09T13:49:07.916Z,20.00
2019-04-09T13:51:52.890Z,20.20
2019-04-09T13:54:21.417Z,20.40
2019-04-09T13:56:49.391Z,20.40
2019-04-09T13:59:17.071Z,20.60
2019-04-09T14:01:45.077Z,20.50
2019-04-09T14:04:35.677Z,20.30
2019-04-09T14:07:03.871Z,20.30
2019-04-09T14:09:32.058Z,20.10
2019-04-09T14:11:59.611Z,20.10
2019-04-09T14:14:27.115Z,20.10
2019-04-09T14:16:55.352Z,20.20
2019-04-09T14:19:24.121Z,20.50
2019-04-09T14:21:53.549Z,21.00
2019-04-09T14:24:21.060Z,21.50
2019-04-09T14:26:48.463Z,21.90
2019-04-09T14:29:16.668Z,22.20
2019-04-09T14:31:44.435Z,21.80
2019-04-09T14:34:12.969Z,21.60
2019-04-09T14:36:40.579Z,21.70
2019-04-09T14:39:08.694Z,21.30
2019-04-09T14:41:36.726Z,21.00
2019-04-09T14:44:04.326Z,20.80
2019-04-09T14:46:31.691Z,20.40
2019-04-09T14:48:59.459Z,20.00
2019-04-09T14:51:27.688Z,19.80
2019-04-09T14:53:55.187Z,19.50
2019-04-09T14:56:23.602Z,19.40
2019-04-09T14:58:51.308Z,19.30
2019-04-09T15:01:19.686Z,19.30
2019-04-09T15:03:48.009Z,19.30
2019-04-09T15:06:16.409Z,19.30
2019-04-09T15:08:44.136Z,19.30
2019-04-09T15:11:11.558Z,19.30
2019-04-09T15:13:39.475Z,19.30
2019-04-09T15:16:07.544Z,19.30
2019-04-09T15:18:35.911Z,19.30
2019-04-09T15:21:35.435Z,19.30
2019-04-09T15:24:03.261Z,19.30
2019-04-09T15:26:30.771Z,19.30
2019-04-09T15:28:58.450Z,19.30
2019-04-09T15:31:25.839Z,19.20
2019-04-09T15:33:53.268Z,19.00
2019-04-09T15:36:21.347Z,18.80
2019-04-09T15:38:49.865Z,18.60
2019-04-09T15:41:17.674Z,18.30
2019-04-09T15:43:45.180Z,17.90
2019-04-09T15:46:13.094Z,17.80
2019-04-09T15:48:40.782Z,17.80
2019-04-09T15:51:08.857Z,17.80
2019-04-09T15:53:38.065Z,17.60
2019-04-09T15:56:06.456Z,17.60
2019-04-09T15:58:34.698Z,17.50
2019-04-09T16:01:03.212Z,17.40
2019-04-09T16:03:43.257Z,17.20
2019-04-09T16:06:00.120Z,17.20
2019-04-09T16:08:47.123Z,17.10
2019-04-09T16:11:15.762Z,17.10
2019-04-09T16:13:43.488Z,17.20
2019-04-09T16:16:11.526Z,17.10
2019-04-09T16:18:39.251Z,17.20
2019-04-09T16:21:07.906Z,17.20
2019-04-09T16:23:35.308Z,17.20
2019-04-09T16:26:02.793Z,17.10
2019-04-09T16:28:30.180Z,17.10
2019-04-09T16:30:58.015Z,17.00
2019-04-09T16:33:26.098Z,16.90
2019-04-09T16:35:53.565Z,16.90
2019-04-09T16:38:20.975Z,16.80
2019-04-09T16:40:48.689Z,16.80
2019-04-09T16:43:17.838Z,16.70
2019-04-09T16:45:46.194Z,16.70
2019-04-09T16:48:14.666Z,16.70
2019-04-09T16:50:42.397Z,16.60
2019-04-09T16:53:09.822Z,16.50
2019-04-09T16:55:37.286Z,16.50
2019-04-09T16:58:08.306Z,16.40
2019-04-09T17:00:33.886Z,16.20
2019-04-09T17:03:01.508Z,16.20
2019-04-09T17:05:30.848Z,16.10
2019-04-09T17:07:58.821Z,16.00
2019-04-09T17:10:26.378Z,16.00
2019-04-09T17:12:54.440Z,15.90
2019-04-09T17:15:21.854Z,15.90
2019-04-09T17:17:49.968Z,15.80
2019-04-09T17:20:17.424Z,15.80
2019-04-09T17:22:45.102Z,15.80
2019-04-09T17:25:15.025Z,15.80
2019-04-09T17:27:41.876Z,15.70
2019-04-09T17:30:10.107Z,15.60
2019-04-09T17:32:38.333Z,15.60
2019-04-09T17:35:06.722Z,15.50
2019-04-09T17:37:34.228Z,15.50
2019-04-09T17:40:07.196Z,15.40
2019-04-09T17:42:32.056Z,15.30
2019-04-09T17:44:59.822Z,15.20
2019-04-09T17:47:28.071Z,15.10
2019-04-09T17:49:57.672Z,15.00
2019-04-09T17:52:25.983Z,15.00
2019-04-09T17:54:54.615Z,15.00
2019-04-09T17:57:22.176Z,15.00
2019-04-09T17:59:50.225Z,14.90
2019-04-09T18:02:18.170Z,14.90
2019-04-09T18:04:49.788Z,14.80
2019-04-09T18:07:15.780Z,14.80
2019-04-09T18:09:43.512Z,14.70
2019-04-09T18:12:11.484Z,14.70
2019-04-09T18:14:40.960Z,14.70
2019-04-09T18:17:09.053Z,14.60
2019-04-09T18:19:37.039Z,14.60
2019-04-09T18:22:05.195Z,14.60
2019-04-09T18:24:33.793Z,14.50
2019-04-09T18:27:01.449Z,14.50
2019-04-09T18:29:29.427Z,14.50
2019-04-09T18:31:57.046Z,14.40
2019-04-09T18:34:24.943Z,14.40
2019-04-09T18:36:52.592Z,14.30
2019-04-09T18:39:20.107Z,14.20
2019-04-09T18:41:47.591Z,14.20
2019-04-09T18:44:15.162Z,14.20
2019-04-09T18:46:42.724Z,14.00
2019-04-09T18:49:12.925Z,14.00
2019-04-09T18:51:40.753Z,13.90
2019-04-09T18:54:08.407Z,13.90
2019-04-09T18:56:35.960Z,13.80
2019-04-09T18:59:03.508Z,13.70
2019-04-09T19:01:31.324Z,13.70
2019-04-09T19:04:07.001Z,13.60
2019-04-09T19:06:28.550Z,13.40
2019-04-09T19:08:57.534Z,13.40
2019-04-09T19:11:25.594Z,13.40
2019-04-09T19:13:53.547Z,13.30
2019-04-09T19:16:22.083Z,13.20
2019-04-09T19:18:49.857Z,13.10
2019-04-09T19:21:18.476Z,13.10
2019-04-09T19:23:46.521Z,13.00
2019-04-09T19:26:15.771Z,12.90
2019-04-09T19:28:43.651Z,12.90
2019-04-09T19:31:11.391Z,12.70
2019-04-09T19:33:38.879Z,12.70
2019-04-09T19:36:06.388Z,12.60
2019-04-09T19:38:34.495Z,12.60
2019-04-09T19:41:02.112Z,12.40
2019-04-09T19:43:30.411Z,12.40
2019-04-09T19:45:58.342Z,12.30
2019-04-09T19:48:26.292Z,12.30
2019-04-09T19:50:54.326Z,12.20
2019-04-09T19:53:22.165Z,12.10
2019-04-09T19:55:50.801Z,12.00
2019-04-09T19:58:18.951Z,12.00
2019-04-09T20:00:46.537Z,11.90
2019-04-09T20:03:13.954Z,11.90
2019-04-09T20:05:42.723Z,11.80
2019-04-09T20:08:11.167Z,11.80
2019-04-09T20:10:40.724Z,11.70
2019-04-09T20:13:10.148Z,11.60
2019-04-09T20:15:38.054Z,11.60
2019-04-09T20:18:05.637Z,11.50
2019-04-09T20:20:33.148Z,11.50
2019-04-09T20:23:03.456Z,11.40
2019-04-09T20:25:31.380Z,11.40
2019-04-09T20:27:58.851Z,11.30
2019-04-09T20:30:26.309Z,11.30
2019-04-09T20:32:54.723Z,11.20
2019-04-09T20:35:22.412Z,11.30
2019-04-09T20:37:49.859Z,11.20
2019-04-09T20:40:18.563Z,11.30
2019-04-09T20:42:46.801Z,11.20
2019-04-09T20:45:14.924Z,11.20
2019-04-09T20:47:43.200Z,11.20
2019-04-09T20:50:10.969Z,11.20
2019-04-09T20:52:38.436Z,11.10
2019-04-09T20:55:07.953Z,11.10
2019-04-09T20:57:35.375Z,11.10
2019-04-09T21:00:26.478Z,11.00
2019-04-09T21:03:04.740Z,11.00
2019-04-09T21:05:32.570Z,10.90
2019-04-09T21:08:00.574Z,10.90
2019-04-09T21:10:28.712Z,10.90
2019-04-09T21:12:56.694Z,10.90
2019-04-09T21:15:24.200Z,10.80
2019-04-09T21:17:52.003Z,10.80
2019-04-09T21:20:20.448Z,10.90
2019-04-09T21:22:48.596Z,10.90
2019-04-09T21:25:16.227Z,10.90
2019-04-09T21:27:43.806Z,10.90
2019-04-09T21:30:11.472Z,10.90
2019-04-09T21:32:38.918Z,10.90
2019-04-09T21:35:06.794Z,10.90
2019-04-09T21:37:34.284Z,10.90
2019-04-09T21:40:01.697Z,10.90
2019-04-09T21:42:29.179Z,10.90
2019-04-09T21:44:57.490Z,10.90
2019-04-09T21:47:24.983Z,10.90
2019-04-09T21:49:52.427Z,10.90
2019-04-09T21:52:20.187Z,10.90
2019-04-09T21:54:47.637Z,10.80
2019-04-09T21:57:15.087Z,10.80
2019-04-09T21:59:42.779Z,10.70
2019-04-09T22:02:10.189Z,10.80
2019-04-09T22:04:37.912Z,10.70
2019-04-09T22:07:06.321Z,10.70
2019-04-09T22:09:34.550Z,10.70
2019-04-09T22:12:03.021Z,10.80
2019-04-09T22:14:30.864Z,10.70
2019-04-09T22:16:59.248Z,10.70
2019-04-09T22:19:26.816Z,10.70
2019-04-09T22:21:54.549Z,10.70
2019-04-09T22:24:22.028Z,10.70
2019-04-09T22:26:49.711Z,10.70
2019-04-09T22:29:17.271Z,10.70
2019-04-09T22:31:44.672Z,10.60
2019-04-09T22:34:12.110Z,10.70
2019-04-09T22:36:41.781Z,10.70
2019-04-09T22:39:08.744Z,10.70
2019-04-09T22:41:37.463Z,10.70
2019-04-09T22:44:06.920Z,10.70
2019-04-09T22:46:34.329Z,10.70
2019-04-09T22:49:02.842Z,10.80
2019-04-09T22:51:30.737Z,10.70
2019-04-09T22:53:58.248Z,10.80
2019-04-09T22:56:25.693Z,10.80
2019-04-09T22:58:53.341Z,10.80
2019-04-09T23:01:49.820Z,10.80
2019-04-09T23:04:29.783Z,10.80
2019-04-09T23:07:10.169Z,10.80
2019-04-09T23:09:46.697Z,10.90
2019-04-09T23:12:38.267Z,10.90
2019-04-09T23:15:10.909Z,10.80
2019-04-09T23:17:38.408Z,10.80
2019-04-09T23:20:06.182Z,10.80
2019-04-09T23:22:34.054Z,10.80
2019-04-09T23:25:01.456Z,10.80
2019-04-09T23:27:28.901Z,10.90
2019-04-09T23:29:57.331Z,10.80
2019-04-09T23:32:25.604Z,10.80
2019-04-09T23:34:53.151Z,10.80
2019-04-09T23:37:21.695Z,10.80
2019-04-09T23:39:49.241Z,10.80
2019-04-09T23:42:16.921Z,10.80
2019-04-09T23:44:46.025Z,10.80
2019-04-09T23:47:13.428Z,10.80
2019-04-09T23:49:41.318Z,10.80
2019-04-09T23:52:08.811Z,10.80
2019-04-09T23:54:36.240Z,10.80
2019-04-09T23:57:05.000Z,10.80
2019-04-09T23:59:32.543Z,10.80
